sensor_id;sensor_type;location;lat;lon;timestamp;temperature;humidity
26336;DHT22;14047;50.936;4.654;2023-04-06T00:01:42;6.90;99.90
26336;DHT22;14047;50.936;4.654;2023-04-06T00:04:08;6.90;99.90
26336;DHT22;14047;50.936;4.654;2023-04-06T00:06:34;6.90;99.90
26336;DHT22;14047;50.936;4.654;2023-04-06T00:09:00;6.90;99.90
26336;DHT22;14047;50.936;4.654;2023-04-06T00:11:26;6.90;99.90
26336;DHT22;14047;50.936;4.654;2023-04-06T00:13:52;7.00;99.90
26336;DHT22;14047;50.936;4.654;2023-04-06T00:16:19;7.00;99.90
26336;DHT22;14047;50.936;4.654;2023-04-06T00:18:45;7.00;99.90
26336;DHT22;14047;50.936;4.654;2023-04-06T00:21:12;7.00;99.90
26336;DHT22;14047;50.936;4.654;2023-04-06T00:23:39;6.90;99.90
26336;DHT22;14047;50.936;4.654;2023-04-06T00:26:05;6.90;99.90
26336;DHT22;14047;50.936;4.654;2023-04-06T00:28:31;6.90;99.90
26336;DHT22;14047;50.936;4.654;2023-04-06T00:30:57;6.90;99.90
26336;DHT22;14047;50.936;4.654;2023-04-06T00:33:23;6.90;99.90
26336;DHT22;14047;50.936;4.654;2023-04-06T00:35:49;7.00;99.90
26336;DHT22;14047;50.936;4.654;2023-04-06T00:38:16;7.00;99.90
26336;DHT22;14047;50.936;4.654;2023-04-06T00:40:45;7.00;99.90
26336;DHT22;14047;50.936;4.654;2023-04-06T00:43:12;7.00;99.90
26336;DHT22;14047;50.936;4.654;2023-04-06T00:45:39;6.90;99.90
26336;DHT22;14047;50.936;4.654;2023-04-06T00:48:06;7.00;99.90
26336;DHT22;14047;50.936;4.654;2023-04-06T00:50:33;7.00;99.90
26336;DHT22;14047;50.936;4.654;2023-04-06T00:52:59;7.00;99.90
26336;DHT22;14047;50.936;4.654;2023-04-06T00:55:27;7.10;99.90
26336;DHT22;14047;50.936;4.654;2023-04-06T00:57:55;7.20;99.90
26336;DHT22;14047;50.936;4.654;2023-04-06T01:00:22;7.20;99.90
26336;DHT22;14047;50.936;4.654;2023-04-06T01:02:55;7.20;99.90
26336;DHT22;14047;50.936;4.654;2023-04-06T01:05:26;7.20;99.90
26336;DHT22;14047;50.936;4.654;2023-04-06T01:07:56;7.30;99.90
26336;DHT22;14047;50.936;4.654;2023-04-06T01:10:27;7.20;99.90
26336;DHT22;14047;50.936;4.654;2023-04-06T01:13:13;7.20;99.90
26336;DHT22;14047;50.936;4.654;2023-04-06T01:16:00;7.30;99.90
26336;DHT22;14047;50.936;4.654;2023-04-06T01:18:44;7.30;99.90
26336;DHT22;14047;50.936;4.654;2023-04-06T01:21:21;7.30;99.90
26336;DHT22;14047;50.936;4.654;2023-04-06T01:24:06;7.40;99.90
26336;DHT22;14047;50.936;4.654;2023-04-06T01:26:43;7.40;99.90
26336;DHT22;14047;50.936;4.654;2023-04-06T01:29:10;7.40;99.90
26336;DHT22;14047;50.936;4.654;2023-04-06T01:31:38;7.40;99.90
26336;DHT22;14047;50.936;4.654;2023-04-06T01:34:04;7.50;99.90
26336;DHT22;14047;50.936;4.654;2023-04-06T01:36:30;7.60;99.90
26336;DHT22;14047;50.936;4.654;2023-04-06T01:39:06;7.60;99.90
26336;DHT22;14047;50.936;4.654;2023-04-06T01:41:35;7.70;99.90
26336;DHT22;14047;50.936;4.654;2023-04-06T01:44:02;7.70;99.90
26336;DHT22;14047;50.936;4.654;2023-04-06T01:46:30;7.80;99.90
26336;DHT22;14047;50.936;4.654;2023-04-06T01:48:57;7.80;99.90
26336;DHT22;14047;50.936;4.654;2023-04-06T01:51:41;7.80;99.90
26336;DHT22;14047;50.936;4.654;2023-04-06T01:54:11;7.70;99.90
26336;DHT22;14047;50.936;4.654;2023-04-06T01:56:56;7.80;99.90
26336;DHT22;14047;50.936;4.654;2023-04-06T01:59:32;7.80;99.90
26336;DHT22;14047;50.936;4.654;2023-04-06T02:02:02;7.70;99.90
26336;DHT22;14047;50.936;4.654;2023-04-06T02:04:30;7.70;99.90
26336;DHT22;14047;50.936;4.654;2023-04-06T02:07:06;7.80;99.90
26336;DHT22;14047;50.936;4.654;2023-04-06T02:09:32;7.80;99.90
26336;DHT22;14047;50.936;4.654;2023-04-06T02:11:58;7.80;99.90
26336;DHT22;14047;50.936;4.654;2023-04-06T02:14:25;7.80;99.90
26336;DHT22;14047;50.936;4.654;2023-04-06T02:16:54;7.80;99.90
26336;DHT22;14047;50.936;4.654;2023-04-06T02:19:21;7.80;99.90
26336;DHT22;14047;50.936;4.654;2023-04-06T02:21:48;7.80;99.90
26336;DHT22;14047;50.936;4.654;2023-04-06T02:24:14;7.90;99.90
26336;DHT22;14047;50.936;4.654;2023-04-06T02:26:40;7.80;99.90
26336;DHT22;14047;50.936;4.654;2023-04-06T02:29:06;7.80;99.90
26336;DHT22;14047;50.936;4.654;2023-04-06T02:31:32;7.80;99.90
26336;DHT22;14047;50.936;4.654;2023-04-06T02:33:59;7.80;99.90
26336;DHT22;14047;50.936;4.654;2023-04-06T02:36:27;7.80;99.90
26336;DHT22;14047;50.936;4.654;2023-04-06T02:38:53;7.80;99.90
26336;DHT22;14047;50.936;4.654;2023-04-06T02:41:19;7.70;99.90
26336;DHT22;14047;50.936;4.654;2023-04-06T02:43:45;7.70;99.90
26336;DHT22;14047;50.936;4.654;2023-04-06T02:46:25;7.70;99.90
26336;DHT22;14047;50.936;4.654;2023-04-06T02:48:51;7.70;99.90
26336;DHT22;14047;50.936;4.654;2023-04-06T02:51:17;7.70;99.90
26336;DHT22;14047;50.936;4.654;2023-04-06T02:53:49;7.60;99.90
26336;DHT22;14047;50.936;4.654;2023-04-06T02:56:15;7.60;99.90
26336;DHT22;14047;50.936;4.654;2023-04-06T02:58:48;7.60;99.90
26336;DHT22;14047;50.936;4.654;2023-04-06T03:01:15;7.50;99.90
26336;DHT22;14047;50.936;4.654;2023-04-06T03:03:41;7.50;99.90
26336;DHT22;14047;50.936;4.654;2023-04-06T03:06:14;7.50;99.90
26336;DHT22;14047;50.936;4.654;2023-04-06T03:08:40;7.50;99.90
26336;DHT22;14047;50.936;4.654;2023-04-06T03:11:06;7.50;99.90
26336;DHT22;14047;50.936;4.654;2023-04-06T03:13:37;7.40;99.90
26336;DHT22;14047;50.936;4.654;2023-04-06T03:16:07;7.50;99.90
26336;DHT22;14047;50.936;4.654;2023-04-06T03:18:34;7.50;99.90
26336;DHT22;14047;50.936;4.654;2023-04-06T03:21:00;7.50;99.90
26336;DHT22;14047;50.936;4.654;2023-04-06T03:23:45;7.30;99.90
26336;DHT22;14047;50.936;4.654;2023-04-06T03:26:11;7.30;99.90
26336;DHT22;14047;50.936;4.654;2023-04-06T03:28:37;7.30;99.90
26336;DHT22;14047;50.936;4.654;2023-04-06T03:31:05;7.30;99.90
26336;DHT22;14047;50.936;4.654;2023-04-06T03:33:43;7.30;99.90
26336;DHT22;14047;50.936;4.654;2023-04-06T03:36:14;7.30;99.90
26336;DHT22;14047;50.936;4.654;2023-04-06T03:38:42;7.30;99.90
26336;DHT22;14047;50.936;4.654;2023-04-06T03:41:13;7.20;99.90
26336;DHT22;14047;50.936;4.654;2023-04-06T03:43:43;7.30;99.90
26336;DHT22;14047;50.936;4.654;2023-04-06T03:46:09;7.20;99.90
26336;DHT22;14047;50.936;4.654;2023-04-06T03:48:35;7.30;99.90
26336;DHT22;14047;50.936;4.654;2023-04-06T03:51:04;7.30;99.90
26336;DHT22;14047;50.936;4.654;2023-04-06T03:53:30;7.20;99.90
26336;DHT22;14047;50.936;4.654;2023-04-06T03:55:56;7.20;99.90
26336;DHT22;14047;50.936;4.654;2023-04-06T03:58:22;7.30;99.90
26336;DHT22;14047;50.936;4.654;2023-04-06T04:00:48;7.40;99.90
26336;DHT22;14047;50.936;4.654;2023-04-06T04:03:14;7.40;99.90
26336;DHT22;14047;50.936;4.654;2023-04-06T04:05:42;7.40;99.90
26336;DHT22;14047;50.936;4.654;2023-04-06T04:08:09;7.50;99.90
26336;DHT22;14047;50.936;4.654;2023-04-06T04:10:35;7.50;99.90
26336;DHT22;14047;50.936;4.654;2023-04-06T04:13:01;7.60;99.90
26336;DHT22;14047;50.936;4.654;2023-04-06T04:15:26;7.60;99.90
26336;DHT22;14047;50.936;4.654;2023-04-06T04:17:52;7.60;99.90
26336;DHT22;14047;50.936;4.654;2023-04-06T04:20:18;7.60;99.90
26336;DHT22;14047;50.936;4.654;2023-04-06T04:22:44;7.70;99.90
26336;DHT22;14047;50.936;4.654;2023-04-06T04:25:10;7.70;99.90
26336;DHT22;14047;50.936;4.654;2023-04-06T04:27:42;7.70;99.90
26336;DHT22;14047;50.936;4.654;2023-04-06T04:30:08;7.70;99.90
26336;DHT22;14047;50.936;4.654;2023-04-06T04:32:35;7.80;99.90
26336;DHT22;14047;50.936;4.654;2023-04-06T04:35:03;7.70;99.90
26336;DHT22;14047;50.936;4.654;2023-04-06T04:37:35;7.70;99.90
26336;DHT22;14047;50.936;4.654;2023-04-06T04:40:02;7.70;99.90
26336;DHT22;14047;50.936;4.654;2023-04-06T04:42:32;7.70;99.90
26336;DHT22;14047;50.936;4.654;2023-04-06T04:44:59;7.70;99.90
26336;DHT22;14047;50.936;4.654;2023-04-06T04:47:38;7.70;99.90
26336;DHT22;14047;50.936;4.654;2023-04-06T04:50:06;7.80;99.90
26336;DHT22;14047;50.936;4.654;2023-04-06T04:52:34;7.80;99.90
26336;DHT22;14047;50.936;4.654;2023-04-06T04:55:13;7.80;99.90
26336;DHT22;14047;50.936;4.654;2023-04-06T04:57:41;7.80;99.90
26336;DHT22;14047;50.936;4.654;2023-04-06T05:00:07;7.90;99.90
26336;DHT22;14047;50.936;4.654;2023-04-06T05:02:35;8.00;99.90
26336;DHT22;14047;50.936;4.654;2023-04-06T05:05:19;8.00;99.90
26336;DHT22;14047;50.936;4.654;2023-04-06T05:07:46;8.10;99.90
26336;DHT22;14047;50.936;4.654;2023-04-06T05:10:22;8.20;99.90
26336;DHT22;14047;50.936;4.654;2023-04-06T05:12:56;8.20;99.90
26336;DHT22;14047;50.936;4.654;2023-04-06T05:15:22;8.20;99.90
26336;DHT22;14047;50.936;4.654;2023-04-06T05:17:52;8.30;99.90
26336;DHT22;14047;50.936;4.654;2023-04-06T05:20:23;8.30;99.90
26336;DHT22;14047;50.936;4.654;2023-04-06T05:22:52;8.40;99.90
26336;DHT22;14047;50.936;4.654;2023-04-06T05:25:19;8.40;99.90
26336;DHT22;14047;50.936;4.654;2023-04-06T05:27:48;8.50;99.90
26336;DHT22;14047;50.936;4.654;2023-04-06T05:30:26;8.50;99.90
26336;DHT22;14047;50.936;4.654;2023-04-06T05:32:52;8.50;99.90
26336;DHT22;14047;50.936;4.654;2023-04-06T05:35:19;8.50;99.90
26336;DHT22;14047;50.936;4.654;2023-04-06T05:37:50;8.60;99.90
26336;DHT22;14047;50.936;4.654;2023-04-06T05:40:16;8.70;99.90
26336;DHT22;14047;50.936;4.654;2023-04-06T05:42:42;8.70;99.90
26336;DHT22;14047;50.936;4.654;2023-04-06T05:45:10;8.80;99.90
26336;DHT22;14047;50.936;4.654;2023-04-06T05:47:38;8.70;99.90
26336;DHT22;14047;50.936;4.654;2023-04-06T05:50:18;8.80;99.90
26336;DHT22;14047;50.936;4.654;2023-04-06T05:52:45;8.90;99.90
26336;DHT22;14047;50.936;4.654;2023-04-06T05:55:14;9.00;99.90
26336;DHT22;14047;50.936;4.654;2023-04-06T05:57:43;9.00;99.90
26336;DHT22;14047;50.936;4.654;2023-04-06T06:00:10;9.10;99.90
26336;DHT22;14047;50.936;4.654;2023-04-06T06:02:39;9.20;99.90
26336;DHT22;14047;50.936;4.654;2023-04-06T06:05:08;9.20;99.90
26336;DHT22;14047;50.936;4.654;2023-04-06T06:07:35;9.30;99.90
26336;DHT22;14047;50.936;4.654;2023-04-06T06:10:02;9.40;99.90
26336;DHT22;14047;50.936;4.654;2023-04-06T06:12:35;9.50;99.90
26336;DHT22;14047;50.936;4.654;2023-04-06T06:15:01;9.50;99.90
26336;DHT22;14047;50.936;4.654;2023-04-06T06:17:28;9.60;99.90
26336;DHT22;14047;50.936;4.654;2023-04-06T06:19:55;9.70;99.90
26336;DHT22;14047;50.936;4.654;2023-04-06T06:22:21;9.90;99.90
26336;DHT22;14047;50.936;4.654;2023-04-06T06:24:47;10.00;99.90
26336;DHT22;14047;50.936;4.654;2023-04-06T06:27:14;10.20;99.90
26336;DHT22;14047;50.936;4.654;2023-04-06T06:29:40;10.30;99.90
26336;DHT22;14047;50.936;4.654;2023-04-06T06:32:06;10.30;99.90
26336;DHT22;14047;50.936;4.654;2023-04-06T06:34:35;10.40;99.90
26336;DHT22;14047;50.936;4.654;2023-04-06T06:37:03;10.40;99.90
26336;DHT22;14047;50.936;4.654;2023-04-06T06:39:30;10.50;99.90
26336;DHT22;14047;50.936;4.654;2023-04-06T06:41:56;10.10;99.90
26336;DHT22;14047;50.936;4.654;2023-04-06T06:44:40;10.10;99.90
26336;DHT22;14047;50.936;4.654;2023-04-06T06:47:06;10.20;99.90
26336;DHT22;14047;50.936;4.654;2023-04-06T06:49:32;10.40;99.90
26336;DHT22;14047;50.936;4.654;2023-04-06T06:51:58;10.60;99.90
26336;DHT22;14047;50.936;4.654;2023-04-06T06:54:24;10.60;99.90
26336;DHT22;14047;50.936;4.654;2023-04-06T06:56:50;10.60;99.90
26336;DHT22;14047;50.936;4.654;2023-04-06T06:59:16;10.70;99.90
26336;DHT22;14047;50.936;4.654;2023-04-06T07:01:42;10.60;99.90
26336;DHT22;14047;50.936;4.654;2023-04-06T07:04:08;10.40;99.90
26336;DHT22;14047;50.936;4.654;2023-04-06T07:06:35;10.20;99.90
26336;DHT22;14047;50.936;4.654;2023-04-06T07:09:02;9.90;99.90
26336;DHT22;14047;50.936;4.654;2023-04-06T07:11:29;9.50;99.90
26336;DHT22;14047;50.936;4.654;2023-04-06T07:13:55;9.70;99.90
26336;DHT22;14047;50.936;4.654;2023-04-06T07:16:22;9.60;99.90
26336;DHT22;14047;50.936;4.654;2023-04-06T07:18:47;9.80;99.90
26336;DHT22;14047;50.936;4.654;2023-04-06T07:21:13;10.00;99.90
26336;DHT22;14047;50.936;4.654;2023-04-06T07:23:39;10.00;99.90
26336;DHT22;14047;50.936;4.654;2023-04-06T07:26:06;10.10;99.90
26336;DHT22;14047;50.936;4.654;2023-04-06T07:28:32;10.00;99.90
26336;DHT22;14047;50.936;4.654;2023-04-06T07:31:00;9.90;99.90
26336;DHT22;14047;50.936;4.654;2023-04-06T07:33:27;10.10;99.90
26336;DHT22;14047;50.936;4.654;2023-04-06T07:35:56;10.00;99.90
26336;DHT22;14047;50.936;4.654;2023-04-06T07:38:24;10.20;99.90
26336;DHT22;14047;50.936;4.654;2023-04-06T07:40:51;10.30;99.90
26336;DHT22;14047;50.936;4.654;2023-04-06T07:43:17;10.40;99.90
26336;DHT22;14047;50.936;4.654;2023-04-06T07:45:43;10.60;99.90
26336;DHT22;14047;50.936;4.654;2023-04-06T07:48:10;10.70;99.90
26336;DHT22;14047;50.936;4.654;2023-04-06T07:50:36;10.90;99.90
26336;DHT22;14047;50.936;4.654;2023-04-06T07:53:03;11.00;99.90
26336;DHT22;14047;50.936;4.654;2023-04-06T07:55:29;11.10;99.90
26336;DHT22;14047;50.936;4.654;2023-04-06T07:57:55;11.00;99.90
26336;DHT22;14047;50.936;4.654;2023-04-06T08:00:21;10.90;99.90
26336;DHT22;14047;50.936;4.654;2023-04-06T08:02:47;11.00;99.90
26336;DHT22;14047;50.936;4.654;2023-04-06T08:05:13;11.10;99.90
26336;DHT22;14047;50.936;4.654;2023-04-06T08:07:39;11.40;99.90
26336;DHT22;14047;50.936;4.654;2023-04-06T08:10:05;11.60;99.90
26336;DHT22;14047;50.936;4.654;2023-04-06T08:12:32;11.70;99.90
26336;DHT22;14047;50.936;4.654;2023-04-06T08:14:59;11.80;99.90
26336;DHT22;14047;50.936;4.654;2023-04-06T08:17:25;12.00;99.90
26336;DHT22;14047;50.936;4.654;2023-04-06T08:19:53;12.00;99.90
26336;DHT22;14047;50.936;4.654;2023-04-06T08:22:19;12.00;99.90
26336;DHT22;14047;50.936;4.654;2023-04-06T08:24:44;11.90;99.90
26336;DHT22;14047;50.936;4.654;2023-04-06T08:27:10;11.80;99.90
26336;DHT22;14047;50.936;4.654;2023-04-06T08:29:36;11.80;99.90
26336;DHT22;14047;50.936;4.654;2023-04-06T08:32:02;11.80;99.90
26336;DHT22;14047;50.936;4.654;2023-04-06T08:34:34;11.60;99.90
26336;DHT22;14047;50.936;4.654;2023-04-06T08:37:01;11.50;99.90
26336;DHT22;14047;50.936;4.654;2023-04-06T08:39:27;11.60;99.90
26336;DHT22;14047;50.936;4.654;2023-04-06T08:41:54;11.60;99.90
26336;DHT22;14047;50.936;4.654;2023-04-06T08:44:22;11.70;99.90
26336;DHT22;14047;50.936;4.654;2023-04-06T08:46:49;11.80;99.90
26336;DHT22;14047;50.936;4.654;2023-04-06T08:49:16;11.90;99.90
26336;DHT22;14047;50.936;4.654;2023-04-06T08:51:42;11.90;99.90
26336;DHT22;14047;50.936;4.654;2023-04-06T08:54:08;12.00;99.90
26336;DHT22;14047;50.936;4.654;2023-04-06T08:56:37;12.10;99.90
26336;DHT22;14047;50.936;4.654;2023-04-06T08:59:05;12.10;99.90
26336;DHT22;14047;50.936;4.654;2023-04-06T09:01:33;12.10;99.90
26336;DHT22;14047;50.936;4.654;2023-04-06T09:04:00;12.20;99.90
26336;DHT22;14047;50.936;4.654;2023-04-06T09:06:26;12.30;99.90
26336;DHT22;14047;50.936;4.654;2023-04-06T09:08:53;12.40;99.90
26336;DHT22;14047;50.936;4.654;2023-04-06T09:11:19;12.50;99.90
26336;DHT22;14047;50.936;4.654;2023-04-06T09:13:50;12.50;99.90
26336;DHT22;14047;50.936;4.654;2023-04-06T09:16:17;12.60;99.90
26336;DHT22;14047;50.936;4.654;2023-04-06T09:18:43;12.50;99.90
26336;DHT22;14047;50.936;4.654;2023-04-06T09:21:10;12.60;99.90
26336;DHT22;14047;50.936;4.654;2023-04-06T09:23:37;12.50;99.90
26336;DHT22;14047;50.936;4.654;2023-04-06T09:26:21;12.40;99.90
26336;DHT22;14047;50.936;4.654;2023-04-06T09:28:53;12.30;99.90
26336;DHT22;14047;50.936;4.654;2023-04-06T09:31:31;12.30;99.90
26336;DHT22;14047;50.936;4.654;2023-04-06T09:33:59;12.20;99.90
26336;DHT22;14047;50.936;4.654;2023-04-06T09:36:33;12.30;99.90
26336;DHT22;14047;50.936;4.654;2023-04-06T09:39:04;12.40;99.90
26336;DHT22;14047;50.936;4.654;2023-04-06T09:41:36;12.40;99.90
26336;DHT22;14047;50.936;4.654;2023-04-06T09:44:07;12.50;99.90
26336;DHT22;14047;50.936;4.654;2023-04-06T09:46:44;12.50;99.90
26336;DHT22;14047;50.936;4.654;2023-04-06T09:49:12;12.60;99.90
26336;DHT22;14047;50.936;4.654;2023-04-06T09:51:53;12.40;99.90
26336;DHT22;14047;50.936;4.654;2023-04-06T09:54:22;12.40;99.90
26336;DHT22;14047;50.936;4.654;2023-04-06T09:56:56;12.50;99.90
26336;DHT22;14047;50.936;4.654;2023-04-06T10:02:45;12.30;99.90
26336;DHT22;14047;50.936;4.654;2023-04-06T10:05:25;12.00;99.90
26336;DHT22;14047;50.936;4.654;2023-04-06T10:07:55;11.90;99.90
26336;DHT22;14047;50.936;4.654;2023-04-06T10:10:23;11.90;99.90
26336;DHT22;14047;50.936;4.654;2023-04-06T10:12:49;12.00;99.90
26336;DHT22;14047;50.936;4.654;2023-04-06T10:15:16;12.00;99.90
26336;DHT22;14047;50.936;4.654;2023-04-06T10:17:43;12.10;99.90
26336;DHT22;14047;50.936;4.654;2023-04-06T10:20:14;12.10;99.90
26336;DHT22;14047;50.936;4.654;2023-04-06T10:25:38;12.00;99.90
26336;DHT22;14047;50.936;4.654;2023-04-06T10:28:08;11.90;99.90
26336;DHT22;14047;50.936;4.654;2023-04-06T10:30:35;12.00;99.90
26336;DHT22;14047;50.936;4.654;2023-04-06T10:33:17;11.90;99.90
26336;DHT22;14047;50.936;4.654;2023-04-06T10:35:43;11.90;99.90
26336;DHT22;14047;50.936;4.654;2023-04-06T10:38:09;12.00;99.90
26336;DHT22;14047;50.936;4.654;2023-04-06T10:40:38;12.10;99.90
26336;DHT22;14047;50.936;4.654;2023-04-06T10:43:19;12.10;99.90
26336;DHT22;14047;50.936;4.654;2023-04-06T10:45:56;12.10;99.90
26336;DHT22;14047;50.936;4.654;2023-04-06T10:48:22;12.10;99.90
26336;DHT22;14047;50.936;4.654;2023-04-06T10:50:51;12.00;99.90
26336;DHT22;14047;50.936;4.654;2023-04-06T10:53:27;12.00;99.90
26336;DHT22;14047;50.936;4.654;2023-04-06T10:55:56;12.10;99.90
26336;DHT22;14047;50.936;4.654;2023-04-06T10:58:27;12.10;99.90
26336;DHT22;14047;50.936;4.654;2023-04-06T11:00:54;12.20;99.90
26336;DHT22;14047;50.936;4.654;2023-04-06T11:03:20;12.20;99.90
26336;DHT22;14047;50.936;4.654;2023-04-06T11:05:48;12.10;99.90
26336;DHT22;14047;50.936;4.654;2023-04-06T11:08:32;12.30;99.90
26336;DHT22;14047;50.936;4.654;2023-04-06T11:13:42;12.40;99.90
26336;DHT22;14047;50.936;4.654;2023-04-06T11:16:22;12.50;99.90
26336;DHT22;14047;50.936;4.654;2023-04-06T11:21:36;12.60;99.90
26336;DHT22;14047;50.936;4.654;2023-04-06T11:26:43;12.70;99.90
26336;DHT22;14047;50.936;4.654;2023-04-06T11:29:11;12.70;99.90
26336;DHT22;14047;50.936;4.654;2023-04-06T11:31:41;12.60;99.90
26336;DHT22;14047;50.936;4.654;2023-04-06T11:34:16;12.50;99.90
26336;DHT22;14047;50.936;4.654;2023-04-06T11:36:44;12.40;99.90
26336;DHT22;14047;50.936;4.654;2023-04-06T11:39:11;12.60;99.90
26336;DHT22;14047;50.936;4.654;2023-04-06T11:41:39;12.50;99.90
26336;DHT22;14047;50.936;4.654;2023-04-06T11:44:05;12.30;99.90
26336;DHT22;14047;50.936;4.654;2023-04-06T11:46:31;12.40;99.90
26336;DHT22;14047;50.936;4.654;2023-04-06T11:48:58;12.50;99.90
26336;DHT22;14047;50.936;4.654;2023-04-06T11:51:27;12.40;99.90
26336;DHT22;14047;50.936;4.654;2023-04-06T11:53:53;12.40;99.90
26336;DHT22;14047;50.936;4.654;2023-04-06T11:56:27;12.40;99.90
26336;DHT22;14047;50.936;4.654;2023-04-06T11:58:57;12.40;99.90
26336;DHT22;14047;50.936;4.654;2023-04-06T12:01:25;12.50;99.90
26336;DHT22;14047;50.936;4.654;2023-04-06T12:03:52;12.40;99.90
26336;DHT22;14047;50.936;4.654;2023-04-06T12:06:18;12.40;99.90
26336;DHT22;14047;50.936;4.654;2023-04-06T12:08:45;12.10;99.90
26336;DHT22;14047;50.936;4.654;2023-04-06T12:11:11;12.00;99.90
26336;DHT22;14047;50.936;4.654;2023-04-06T12:13:37;12.00;99.90
26336;DHT22;14047;50.936;4.654;2023-04-06T12:16:04;12.10;99.90
26336;DHT22;14047;50.936;4.654;2023-04-06T12:18:30;12.10;99.90
26336;DHT22;14047;50.936;4.654;2023-04-06T12:20:56;12.20;99.90
26336;DHT22;14047;50.936;4.654;2023-04-06T12:23:22;12.20;99.90
26336;DHT22;14047;50.936;4.654;2023-04-06T12:25:48;12.40;99.90
26336;DHT22;14047;50.936;4.654;2023-04-06T12:28:14;12.50;99.90
26336;DHT22;14047;50.936;4.654;2023-04-06T12:30:40;12.40;99.90
26336;DHT22;14047;50.936;4.654;2023-04-06T12:33:08;12.40;99.90
26336;DHT22;14047;50.936;4.654;2023-04-06T12:35:34;12.50;99.90
26336;DHT22;14047;50.936;4.654;2023-04-06T12:38:01;12.60;99.90
26336;DHT22;14047;50.936;4.654;2023-04-06T12:40:29;12.70;99.90
26336;DHT22;14047;50.936;4.654;2023-04-06T12:42:56;12.70;99.90
26336;DHT22;14047;50.936;4.654;2023-04-06T12:45:21;12.80;99.90
26336;DHT22;14047;50.936;4.654;2023-04-06T12:47:47;12.80;99.90
26336;DHT22;14047;50.936;4.654;2023-04-06T12:50:13;12.70;99.90
26336;DHT22;14047;50.936;4.654;2023-04-06T12:52:39;12.60;99.90
26336;DHT22;14047;50.936;4.654;2023-04-06T12:55:05;12.70;99.90
26336;DHT22;14047;50.936;4.654;2023-04-06T12:57:32;12.80;99.90
26336;DHT22;14047;50.936;4.654;2023-04-06T12:59:58;12.80;99.90
26336;DHT22;14047;50.936;4.654;2023-04-06T13:02:24;12.50;99.90
26336;DHT22;14047;50.936;4.654;2023-04-06T13:04:50;12.50;99.90
26336;DHT22;14047;50.936;4.654;2023-04-06T13:07:16;12.60;99.90
26336;DHT22;14047;50.936;4.654;2023-04-06T13:09:42;12.50;99.90
26336;DHT22;14047;50.936;4.654;2023-04-06T13:12:08;12.40;99.90
26336;DHT22;14047;50.936;4.654;2023-04-06T13:14:34;12.00;99.90
26336;DHT22;14047;50.936;4.654;2023-04-06T13:17:00;11.80;99.90
26336;DHT22;14047;50.936;4.654;2023-04-06T13:19:26;12.00;99.90
26336;DHT22;14047;50.936;4.654;2023-04-06T13:21:52;12.00;99.90
26336;DHT22;14047;50.936;4.654;2023-04-06T13:24:18;12.10;99.90
26336;DHT22;14047;50.936;4.654;2023-04-06T13:26:45;12.00;99.90
26336;DHT22;14047;50.936;4.654;2023-04-06T13:29:11;11.90;99.90
26336;DHT22;14047;50.936;4.654;2023-04-06T13:31:37;12.00;99.90
26336;DHT22;14047;50.936;4.654;2023-04-06T13:34:04;11.80;99.90
26336;DHT22;14047;50.936;4.654;2023-04-06T13:36:30;11.70;99.90
26336;DHT22;14047;50.936;4.654;2023-04-06T13:38:58;11.70;99.90
26336;DHT22;14047;50.936;4.654;2023-04-06T13:41:24;11.70;99.90
26336;DHT22;14047;50.936;4.654;2023-04-06T13:43:52;11.90;99.90
26336;DHT22;14047;50.936;4.654;2023-04-06T13:46:18;11.90;99.90
26336;DHT22;14047;50.936;4.654;2023-04-06T13:48:44;12.10;99.90
26336;DHT22;14047;50.936;4.654;2023-04-06T13:51:11;12.10;99.90
26336;DHT22;14047;50.936;4.654;2023-04-06T13:53:38;12.10;99.90
26336;DHT22;14047;50.936;4.654;2023-04-06T13:56:05;12.10;99.90
26336;DHT22;14047;50.936;4.654;2023-04-06T13:58:31;12.00;99.90
26336;DHT22;14047;50.936;4.654;2023-04-06T14:01:07;11.90;99.90
26336;DHT22;14047;50.936;4.654;2023-04-06T14:03:37;11.90;99.90
26336;DHT22;14047;50.936;4.654;2023-04-06T14:06:12;12.10;99.90
26336;DHT22;14047;50.936;4.654;2023-04-06T14:08:38;12.20;99.90
26336;DHT22;14047;50.936;4.654;2023-04-06T14:11:04;11.90;99.90
26336;DHT22;14047;50.936;4.654;2023-04-06T14:13:30;11.80;99.90
26336;DHT22;14047;50.936;4.654;2023-04-06T14:15:56;12.00;99.90
26336;DHT22;14047;50.936;4.654;2023-04-06T14:18:22;12.20;99.90
26336;DHT22;14047;50.936;4.654;2023-04-06T14:20:55;12.10;99.90
26336;DHT22;14047;50.936;4.654;2023-04-06T14:23:21;12.20;99.90
26336;DHT22;14047;50.936;4.654;2023-04-06T14:25:47;12.30;99.90
26336;DHT22;14047;50.936;4.654;2023-04-06T14:28:14;12.20;99.90
26336;DHT22;14047;50.936;4.654;2023-04-06T14:30:40;12.20;99.90
26336;DHT22;14047;50.936;4.654;2023-04-06T14:33:06;12.10;99.90
26336;DHT22;14047;50.936;4.654;2023-04-06T14:35:32;12.30;99.90
26336;DHT22;14047;50.936;4.654;2023-04-06T14:37:58;12.30;99.90
26336;DHT22;14047;50.936;4.654;2023-04-06T14:40:24;12.30;99.90
26336;DHT22;14047;50.936;4.654;2023-04-06T14:42:50;12.30;99.90
26336;DHT22;14047;50.936;4.654;2023-04-06T14:45:17;12.30;99.90
26336;DHT22;14047;50.936;4.654;2023-04-06T14:47:45;12.30;99.90
26336;DHT22;14047;50.936;4.654;2023-04-06T14:50:11;12.30;99.90
26336;DHT22;14047;50.936;4.654;2023-04-06T14:52:36;12.20;99.90
26336;DHT22;14047;50.936;4.654;2023-04-06T14:55:03;12.10;99.90
26336;DHT22;14047;50.936;4.654;2023-04-06T14:57:30;12.10;99.90
26336;DHT22;14047;50.936;4.654;2023-04-06T14:59:56;11.90;99.90
26336;DHT22;14047;50.936;4.654;2023-04-06T15:02:22;11.80;99.90
26336;DHT22;14047;50.936;4.654;2023-04-06T15:04:48;11.80;99.90
26336;DHT22;14047;50.936;4.654;2023-04-06T15:07:14;11.60;99.90
26336;DHT22;14047;50.936;4.654;2023-04-06T15:09:40;11.40;99.90
26336;DHT22;14047;50.936;4.654;2023-04-06T15:12:06;11.40;99.90
26336;DHT22;14047;50.936;4.654;2023-04-06T15:14:32;11.60;99.90
26336;DHT22;14047;50.936;4.654;2023-04-06T15:16:58;11.80;99.90
26336;DHT22;14047;50.936;4.654;2023-04-06T15:19:24;11.90;99.90
26336;DHT22;14047;50.936;4.654;2023-04-06T15:21:49;12.00;99.90
26336;DHT22;14047;50.936;4.654;2023-04-06T15:24:15;12.10;99.90
26336;DHT22;14047;50.936;4.654;2023-04-06T15:26:41;12.30;99.90
26336;DHT22;14047;50.936;4.654;2023-04-06T15:29:07;12.10;99.90
26336;DHT22;14047;50.936;4.654;2023-04-06T15:31:33;12.10;99.90
26336;DHT22;14047;50.936;4.654;2023-04-06T15:33:59;12.00;99.90
26336;DHT22;14047;50.936;4.654;2023-04-06T15:36:28;12.20;99.90
26336;DHT22;14047;50.936;4.654;2023-04-06T15:38:58;12.30;99.90
26336;DHT22;14047;50.936;4.654;2023-04-06T15:41:25;12.30;99.90
26336;DHT22;14047;50.936;4.654;2023-04-06T15:43:52;12.40;99.90
26336;DHT22;14047;50.936;4.654;2023-04-06T15:46:18;12.60;99.90
26336;DHT22;14047;50.936;4.654;2023-04-06T15:48:45;12.80;99.90
26336;DHT22;14047;50.936;4.654;2023-04-06T15:51:11;12.70;99.90
26336;DHT22;14047;50.936;4.654;2023-04-06T15:53:37;12.50;99.90
26336;DHT22;14047;50.936;4.654;2023-04-06T15:56:05;11.90;99.90
26336;DHT22;14047;50.936;4.654;2023-04-06T15:58:34;11.50;99.90